TNCM/SXM METAR and TAF weather

Enter ICAO airport designator
Station Type Date Time Source
TNCM METAR 2019/10/15 03:00 UTC NOAA

TNCM 150300Z VRB01KT 9999 SCT018 SCT035 25/24 Q1016


Station Type Date Time Source
TNCM Decoded METAR 2019/10/15 03:00 UTC NOAA

Juliana Airport, Saint Maarten, Netherlands Antilles (TNCM) 18-03N 063-07W 9M
Oct 14, 2019 - 11:00 PM EDT / 2019.10.15 0300 UTC
Wind: Variable at 1 MPH (1 KT):0
Visibility: greater than 7 mile(s):0
Sky conditions: partly cloudy
Temperature: 77 F (25 C)
Dew Point: 75 F (24 C)
Relative Humidity: 94%
Pressure (altimeter): 30.00 in. Hg (1016 hPa)
ob: TNCM 150300Z VRB01KT 9999 SCT018 SCT035 25/24 Q1016
cycle: 3

Station Type Date Time Source
TNCM TAF 2019/10/15 01:30 UTC NOAA

TAF TNCM 150125Z 1501/1524 08008KT P6SM VCTS SCT018CB BKN050
TEMPO 1501/1503 VRB10G20KT 4SM TSRA BKN018CB OVC050
FM151400 12012KT P6SM VCSH SCT018 SCT050

Example: see airport list